createdAt,value
2022-12-05T00:03:45.540Z,7.30
2022-12-05T00:08:48.465Z,7.30
2022-12-05T00:13:52.410Z,7.30
2022-12-05T00:18:55.971Z,7.30
2022-12-05T00:23:59.446Z,7.30
2022-12-05T00:29:01.740Z,7.30
2022-12-05T00:34:03.945Z,7.30
2022-12-05T00:39:09.068Z,7.30
2022-12-05T00:44:13.208Z,7.30
2022-12-05T00:49:15.358Z,7.30
2022-12-05T00:54:17.881Z,7.30
2022-12-05T00:59:20.133Z,7.30
2022-12-05T01:04:25.019Z,7.30
2022-12-05T01:09:27.663Z,7.30
2022-12-05T01:14:29.702Z,7.30
2022-12-05T01:19:33.193Z,7.30
2022-12-05T01:24:35.272Z,7.30
2022-12-05T01:29:37.842Z,7.30
2022-12-05T01:34:39.876Z,7.40
2022-12-05T01:49:47.054Z,7.40
2022-12-05T01:54:52.016Z,7.30
2022-12-05T02:00:00.339Z,7.40
2022-12-05T02:05:05.751Z,7.30
2022-12-05T02:10:08.401Z,7.30
2022-12-05T02:21:05.396Z,7.40
2022-12-05T02:26:38.955Z,7.20
2022-12-05T02:31:53.106Z,7.30
2022-12-05T02:37:12.421Z,7.30
2022-12-05T02:42:50.720Z,7.30
2022-12-05T02:47:54.797Z,7.30
2022-12-05T02:53:00.521Z,7.30
2022-12-05T02:58:07.205Z,7.30
2022-12-05T03:03:16.948Z,7.30
2022-12-05T03:08:24.106Z,7.30
2022-12-05T03:13:31.827Z,7.30
2022-12-05T03:18:43.785Z,7.40
2022-12-05T03:23:53.018Z,7.40
2022-12-05T03:29:22.443Z,7.40
2022-12-05T03:34:57.437Z,7.40
2022-12-05T03:40:19.749Z,7.40
2022-12-05T03:45:35.725Z,7.40
2022-12-05T03:50:41.448Z,7.40
2022-12-05T03:55:45.749Z,7.40
2022-12-05T04:00:51.010Z,7.40
2022-12-05T04:05:56.304Z,7.40
2022-12-05T04:11:03.440Z,7.40
2022-12-05T04:16:29.191Z,7.50
2022-12-05T04:21:40.404Z,7.50
2022-12-05T04:26:46.949Z,7.50
2022-12-05T04:31:56.414Z,7.50
2022-12-05T04:37:12.592Z,7.50
2022-12-05T04:42:19.327Z,7.50
2022-12-05T04:47:26.808Z,7.50
2022-12-05T04:52:30.629Z,7.50
2022-12-05T04:58:11.212Z,7.50
2022-12-05T05:03:23.640Z,7.40
2022-12-05T05:08:31.323Z,7.40
2022-12-05T05:13:33.467Z,7.40
2022-12-05T05:18:35.532Z,7.40
2022-12-05T05:33:42.863Z,7.30
2022-12-05T05:38:47.800Z,7.30
2022-12-05T05:43:51.437Z,7.40
2022-12-05T05:48:54.029Z,7.40
2022-12-05T05:53:56.861Z,7.40
2022-12-05T05:59:01.496Z,7.30
2022-12-05T06:04:03.872Z,7.50
2022-12-05T06:09:06.997Z,7.50
2022-12-05T06:14:09.662Z,7.50
2022-12-05T06:19:11.627Z,7.50
2022-12-05T06:24:13.728Z,7.50
2022-12-05T06:29:15.881Z,7.50
2022-12-05T06:34:17.979Z,7.60
2022-12-05T06:39:20.116Z,7.60
2022-12-05T06:44:22.361Z,7.60
2022-12-05T06:49:31.576Z,7.60
2022-12-05T06:54:34.830Z,7.60
2022-12-05T06:59:36.859Z,7.60
2022-12-05T07:04:39.113Z,7.60
2022-12-05T07:14:53.415Z,7.60
2022-12-05T07:19:55.724Z,7.60
2022-12-05T07:24:57.970Z,7.60
2022-12-05T07:30:00.336Z,7.70
2022-12-05T07:35:02.935Z,7.60
2022-12-05T07:40:05.817Z,7.60
2022-12-05T07:45:08.790Z,7.70
2022-12-05T07:50:11.071Z,7.70
2022-12-05T07:55:13.103Z,7.70
2022-12-05T08:00:15.913Z,7.70
2022-12-05T08:05:18.057Z,7.80
2022-12-05T08:10:20.204Z,8.00
2022-12-05T08:15:22.312Z,7.80
2022-12-05T08:20:24.503Z,7.90
2022-12-05T08:30:29.157Z,7.90
2022-12-05T08:35:31.279Z,8.00
2022-12-05T08:40:33.349Z,8.00
2022-12-05T08:45:35.492Z,8.00
2022-12-05T08:50:39.207Z,8.10
2022-12-05T08:55:41.784Z,8.10
2022-12-05T09:00:43.807Z,8.20
2022-12-05T09:05:45.851Z,8.20
2022-12-05T09:10:47.877Z,8.20
2022-12-05T09:15:50.076Z,8.30
2022-12-05T09:20:52.166Z,8.30
2022-12-05T09:25:57.951Z,8.40
2022-12-05T09:31:02.711Z,8.30
2022-12-05T09:36:12.179Z,8.40
2022-12-05T09:42:04.729Z,8.40
2022-12-05T09:47:21.231Z,8.40
2022-12-05T09:52:38.576Z,8.30
2022-12-05T09:57:50.828Z,8.30
2022-12-05T10:03:20.837Z,8.40
2022-12-05T10:08:32.588Z,8.40
2022-12-05T10:13:58.425Z,8.40
2022-12-05T10:19:10.883Z,8.50
2022-12-05T10:24:17.357Z,8.60
2022-12-05T10:29:35.430Z,8.60
2022-12-05T10:34:42.672Z,8.60
2022-12-05T10:39:46.514Z,8.70
2022-12-05T10:44:50.819Z,8.70
2022-12-05T10:49:54.096Z,8.70
2022-12-05T10:55:02.746Z,8.70
2022-12-05T11:00:13.554Z,8.80
2022-12-05T11:05:28.444Z,8.80
2022-12-05T11:10:38.816Z,8.90
2022-12-05T11:15:49.393Z,8.90
2022-12-05T11:20:54.763Z,9.00
2022-12-05T11:31:02.695Z,9.10
2022-12-05T11:36:23.627Z,9.30
2022-12-05T11:41:38.430Z,9.10
2022-12-05T11:46:56.508Z,8.90
2022-12-05T11:52:07.191Z,9.20
2022-12-05T11:57:24.207Z,9.20
2022-12-05T12:02:49.003Z,9.30
2022-12-05T12:08:15.548Z,9.40
2022-12-05T12:13:55.198Z,9.20
2022-12-05T12:18:57.186Z,9.20
2022-12-05T12:24:05.646Z,9.20
2022-12-05T12:29:24.173Z,9.20
2022-12-05T12:34:43.982Z,9.30
2022-12-05T12:40:20.850Z,9.30
2022-12-05T12:45:50.940Z,9.40
2022-12-05T12:50:54.765Z,9.50
2022-12-05T12:56:41.963Z,9.60
2022-12-05T13:01:53.259Z,9.80
2022-12-05T13:07:06.098Z,9.70
2022-12-05T13:12:12.859Z,9.80
2022-12-05T13:17:19.078Z,9.90
2022-12-05T13:22:23.907Z,10.00
2022-12-05T13:27:28.282Z,10.10
2022-12-05T13:32:37.098Z,10.00
2022-12-05T13:38:06.354Z,9.90
2022-12-05T13:43:09.935Z,9.90
2022-12-05T13:48:23.690Z,10.10
2022-12-05T13:53:35.224Z,9.80
2022-12-05T13:58:47.062Z,9.80
2022-12-05T14:08:53.979Z,9.80
2022-12-05T14:14:00.731Z,9.70
2022-12-05T14:19:35.534Z,9.60
2022-12-05T14:24:46.523Z,9.50
2022-12-05T14:30:15.681Z,9.40
2022-12-05T14:35:30.009Z,9.30
2022-12-05T14:45:55.854Z,9.20
2022-12-05T14:50:59.751Z,9.20
2022-12-05T14:56:25.013Z,9.00
2022-12-05T15:01:45.447Z,9.00
2022-12-05T15:11:57.455Z,8.90
2022-12-05T15:17:01.727Z,9.00
2022-12-05T15:22:07.202Z,8.80
2022-12-05T15:27:11.927Z,8.80
2022-12-05T15:32:21.156Z,8.70
2022-12-05T15:37:48.246Z,8.70
2022-12-05T15:42:55.894Z,8.60
2022-12-05T15:48:22.967Z,8.60
2022-12-05T15:53:34.642Z,8.60
2022-12-05T15:58:58.747Z,8.50
2022-12-05T16:04:12.586Z,8.50
2022-12-05T16:09:21.185Z,8.40
2022-12-05T16:19:48.658Z,8.30
2022-12-05T16:25:00.178Z,8.40
2022-12-05T16:30:17.458Z,8.40
2022-12-05T16:35:41.014Z,8.40
2022-12-05T16:40:46.000Z,8.30
2022-12-05T16:45:49.531Z,8.40
2022-12-05T16:51:12.294Z,8.40
2022-12-05T16:56:27.778Z,8.40
2022-12-05T17:01:34.269Z,8.40
2022-12-05T17:06:39.714Z,8.30
2022-12-05T17:11:45.153Z,8.40
2022-12-05T17:21:50.354Z,8.40
2022-12-05T17:26:52.402Z,8.40
2022-12-05T17:31:54.514Z,8.40
2022-12-05T17:36:56.647Z,8.40
2022-12-05T17:41:58.789Z,8.40
2022-12-05T17:47:07.550Z,8.30
2022-12-05T17:52:26.874Z,8.40
2022-12-05T18:02:31.501Z,8.50
2022-12-05T18:07:33.608Z,8.50
2022-12-05T18:12:35.862Z,8.50
2022-12-05T18:22:41.124Z,8.50
2022-12-05T18:27:43.157Z,8.50
2022-12-05T18:32:45.292Z,8.50
2022-12-05T18:37:47.311Z,8.50
2022-12-05T18:42:49.365Z,8.50
2022-12-05T18:47:54.671Z,8.60
2022-12-05T18:52:59.504Z,8.50
2022-12-05T18:58:01.571Z,8.50
2022-12-05T19:03:09.131Z,8.50
2022-12-05T19:08:11.523Z,8.40
2022-12-05T19:13:17.917Z,8.40
2022-12-05T19:18:19.986Z,8.40
2022-12-05T19:23:22.094Z,8.40
2022-12-05T19:28:24.156Z,8.60
2022-12-05T19:33:30.820Z,8.40
2022-12-05T19:38:34.881Z,8.50
2022-12-05T19:43:38.082Z,8.50
2022-12-05T19:48:40.491Z,8.50
2022-12-05T19:58:46.928Z,8.50
2022-12-05T20:03:54.822Z,8.50
2022-12-05T20:14:02.142Z,8.60
2022-12-05T20:19:05.034Z,8.60
2022-12-05T20:24:08.289Z,8.60
2022-12-05T20:29:10.815Z,8.60
2022-12-05T20:34:15.006Z,8.60
2022-12-05T20:39:17.675Z,8.60
2022-12-05T20:44:19.716Z,8.70
2022-12-05T20:49:21.833Z,8.60
2022-12-05T20:54:23.923Z,8.60
2022-12-05T20:59:26.419Z,8.60
2022-12-05T21:04:28.579Z,8.60
2022-12-05T21:09:31.743Z,8.60
2022-12-05T21:14:34.297Z,8.60
2022-12-05T21:19:36.270Z,8.80
2022-12-05T21:24:39.428Z,8.60
2022-12-05T21:29:42.773Z,8.60
2022-12-05T21:34:44.886Z,8.60
2022-12-05T21:39:46.983Z,8.50
2022-12-05T21:44:49.094Z,8.60
2022-12-05T21:49:51.159Z,8.50
2022-12-05T21:54:53.283Z,8.50
2022-12-05T21:59:55.296Z,8.50
2022-12-05T22:04:57.305Z,8.50
2022-12-05T22:09:59.568Z,8.60
2022-12-05T22:15:01.851Z,8.60
2022-12-05T22:20:04.669Z,8.20
2022-12-05T22:25:06.914Z,8.60
2022-12-05T22:30:09.292Z,8.60
2022-12-05T22:35:11.330Z,8.60
2022-12-05T22:40:13.433Z,8.60
2022-12-05T22:45:15.445Z,8.60
2022-12-05T22:50:17.522Z,8.60
2022-12-05T22:55:19.614Z,8.70
2022-12-05T23:00:21.666Z,8.70
2022-12-05T23:05:23.795Z,8.70
2022-12-05T23:10:25.920Z,8.70
2022-12-05T23:15:28.048Z,8.80
2022-12-05T23:20:31.009Z,8.80
2022-12-05T23:25:33.208Z,8.80
2022-12-05T23:30:35.291Z,8.90
2022-12-05T23:35:37.326Z,8.90
2022-12-05T23:40:39.340Z,8.90
2022-12-05T23:45:41.552Z,8.90
2022-12-05T23:55:46.129Z,9.00
